sensor_id;sensor_type;location;lat;lon;timestamp;temperature;humidity
7167;DHT22;3625;51.762;14.320;2023-03-01T00:00:08;-3.60;99.90
7167;DHT22;3625;51.762;14.320;2023-03-01T00:05:07;-3.50;99.90
7167;DHT22;3625;51.762;14.320;2023-03-01T00:07:37;-3.50;99.90
7167;DHT22;3625;51.762;14.320;2023-03-01T00:10:06;-3.50;99.90
7167;DHT22;3625;51.762;14.320;2023-03-01T00:15:05;-3.60;99.90
7167;DHT22;3625;51.762;14.320;2023-03-01T00:17:34;-3.60;99.90
7167;DHT22;3625;51.762;14.320;2023-03-01T00:22:34;-3.60;99.90
7167;DHT22;3625;51.762;14.320;2023-03-01T00:25:05;-3.60;99.90
7167;DHT22;3625;51.762;14.320;2023-03-01T00:30:03;-3.70;99.90
7167;DHT22;3625;51.762;14.320;2023-03-01T00:35:01;-3.80;99.90
7167;DHT22;3625;51.762;14.320;2023-03-01T00:42:28;-3.90;99.90
7167;DHT22;3625;51.762;14.320;2023-03-01T00:57:24;-4.00;99.90
7167;DHT22;3625;51.762;14.320;2023-03-01T00:59:55;-5.30;99.90
7167;DHT22;3625;51.762;14.320;2023-03-01T01:04:54;-3.90;99.90
7167;DHT22;3625;51.762;14.320;2023-03-01T01:09:51;-3.80;99.90
7167;DHT22;3625;51.762;14.320;2023-03-01T01:17:19;-3.80;99.90
7167;DHT22;3625;51.762;14.320;2023-03-01T01:27:13;-3.90;99.90
7167;DHT22;3625;51.762;14.320;2023-03-01T01:34:42;-4.00;99.90
7167;DHT22;3625;51.762;14.320;2023-03-01T01:42:13;-4.10;99.90
7167;DHT22;3625;51.762;14.320;2023-03-01T01:44:46;-4.10;99.90
7167;DHT22;3625;51.762;14.320;2023-03-01T01:47:18;-4.10;99.90
7167;DHT22;3625;51.762;14.320;2023-03-01T01:49:52;-4.10;99.90
7167;DHT22;3625;51.762;14.320;2023-03-01T01:52:25;-4.20;99.90
7167;DHT22;3625;51.762;14.320;2023-03-01T01:55:02;-4.20;99.90
7167;DHT22;3625;51.762;14.320;2023-03-01T01:57:37;-4.20;99.90
7167;DHT22;3625;51.762;14.320;2023-03-01T02:00:12;-4.20;99.90
7167;DHT22;3625;51.762;14.320;2023-03-01T02:02:45;-4.30;99.90
7167;DHT22;3625;51.762;14.320;2023-03-01T02:05:26;-4.30;99.90
7167;DHT22;3625;51.762;14.320;2023-03-01T02:08:01;-4.40;99.90
7167;DHT22;3625;51.762;14.320;2023-03-01T02:10:33;-4.40;99.90
7167;DHT22;3625;51.762;14.320;2023-03-01T02:15:33;-4.50;99.90
7167;DHT22;3625;51.762;14.320;2023-03-01T02:18:03;-4.60;99.90
7167;DHT22;3625;51.762;14.320;2023-03-01T02:20:51;-4.60;99.90
7167;DHT22;3625;51.762;14.320;2023-03-01T02:23:31;-4.70;99.90
7167;DHT22;3625;51.762;14.320;2023-03-01T02:26:05;-4.70;99.90
7167;DHT22;3625;51.762;14.320;2023-03-01T02:28:40;-4.80;99.90
7167;DHT22;3625;51.762;14.320;2023-03-01T02:31:14;-4.90;99.90
7167;DHT22;3625;51.762;14.320;2023-03-01T02:34:05;-5.00;99.90
7167;DHT22;3625;51.762;14.320;2023-03-01T02:36:37;-5.00;99.90
7167;DHT22;3625;51.762;14.320;2023-03-01T02:39:12;-4.90;99.90
7167;DHT22;3625;51.762;14.320;2023-03-01T02:41:48;-4.90;99.90
7167;DHT22;3625;51.762;14.320;2023-03-01T02:44:21;-5.00;99.90
7167;DHT22;3625;51.762;14.320;2023-03-01T02:46:52;-5.00;99.90
7167;DHT22;3625;51.762;14.320;2023-03-01T02:49:25;-5.10;99.90
7167;DHT22;3625;51.762;14.320;2023-03-01T02:52:13;-5.20;99.90
7167;DHT22;3625;51.762;14.320;2023-03-01T02:54:55;-5.20;99.90
7167;DHT22;3625;51.762;14.320;2023-03-01T02:57:29;-5.20;99.90
7167;DHT22;3625;51.762;14.320;2023-03-01T03:00:06;-5.50;99.90
7167;DHT22;3625;51.762;14.320;2023-03-01T03:05:22;-5.30;99.90
7167;DHT22;3625;51.762;14.320;2023-03-01T03:10:28;-5.90;99.90
7167;DHT22;3625;51.762;14.320;2023-03-01T03:13:01;-5.40;99.90
7167;DHT22;3625;51.762;14.320;2023-03-01T03:18:07;-5.30;99.90
7167;DHT22;3625;51.762;14.320;2023-03-01T03:30:40;-5.20;99.90
7167;DHT22;3625;51.762;14.320;2023-03-01T03:33:10;-5.20;99.90
7167;DHT22;3625;51.762;14.320;2023-03-01T03:35:42;-5.30;99.90
7167;DHT22;3625;51.762;14.320;2023-03-01T03:38:18;-5.10;99.90
7167;DHT22;3625;51.762;14.320;2023-03-01T03:40:51;-5.10;99.90
7167;DHT22;3625;51.762;14.320;2023-03-01T03:43:32;-5.10;99.90
7167;DHT22;3625;51.762;14.320;2023-03-01T03:46:04;-5.10;99.90
7167;DHT22;3625;51.762;14.320;2023-03-01T03:48:34;-5.20;99.90
7167;DHT22;3625;51.762;14.320;2023-03-01T03:53:33;-5.20;99.90
7167;DHT22;3625;51.762;14.320;2023-03-01T04:01:03;-5.30;99.90
7167;DHT22;3625;51.762;14.320;2023-03-01T04:03:32;-5.00;99.90
7167;DHT22;3625;51.762;14.320;2023-03-01T04:11:03;-5.10;99.90
7167;DHT22;3625;51.762;14.320;2023-03-01T04:16:17;-5.20;99.90
7167;DHT22;3625;51.762;14.320;2023-03-01T04:23:45;-5.30;99.90
7167;DHT22;3625;51.762;14.320;2023-03-01T04:31:14;-5.40;99.90
7167;DHT22;3625;51.762;14.320;2023-03-01T04:33:49;-5.50;99.90
7167;DHT22;3625;51.762;14.320;2023-03-01T04:36:21;-5.50;99.90
7167;DHT22;3625;51.762;14.320;2023-03-01T04:41:23;-5.60;99.90
7167;DHT22;3625;51.762;14.320;2023-03-01T04:46:23;-3.50;99.90
7167;DHT22;3625;51.762;14.320;2023-03-01T04:48:52;-5.60;99.90
7167;DHT22;3625;51.762;14.320;2023-03-01T04:51:21;-5.70;99.90
7167;DHT22;3625;51.762;14.320;2023-03-01T04:53:50;-5.60;99.90
7167;DHT22;3625;51.762;14.320;2023-03-01T04:58:52;-5.50;99.90
7167;DHT22;3625;51.762;14.320;2023-03-01T05:01:23;-5.50;99.90
7167;DHT22;3625;51.762;14.320;2023-03-01T05:03:52;-5.50;99.90
7167;DHT22;3625;51.762;14.320;2023-03-01T05:06:21;-5.60;99.90
7167;DHT22;3625;51.762;14.320;2023-03-01T05:08:50;-5.60;99.90
7167;DHT22;3625;51.762;14.320;2023-03-01T05:16:23;-5.70;99.90
7167;DHT22;3625;51.762;14.320;2023-03-01T05:26:20;-5.70;99.90
7167;DHT22;3625;51.762;14.320;2023-03-01T05:28:54;-5.80;99.90
7167;DHT22;3625;51.762;14.320;2023-03-01T05:31:28;-5.70;99.90
7167;DHT22;3625;51.762;14.320;2023-03-01T05:38:56;-5.80;99.90
7167;DHT22;3625;51.762;14.320;2023-03-01T05:46:24;-5.80;99.90
7167;DHT22;3625;51.762;14.320;2023-03-01T05:48:53;-5.80;99.90
7167;DHT22;3625;51.762;14.320;2023-03-01T05:51:24;-5.80;99.90
7167;DHT22;3625;51.762;14.320;2023-03-01T06:59:25;-4.10;99.90
7167;DHT22;3625;51.762;14.320;2023-03-01T07:04:24;-3.90;99.90
7167;DHT22;3625;51.762;14.320;2023-03-01T07:07:01;-3.80;99.90
7167;DHT22;3625;51.762;14.320;2023-03-01T07:50:04;-2.50;99.90
7167;DHT22;3625;51.762;14.320;2023-03-01T08:00:06;-1.90;99.90
7167;DHT22;3625;51.762;14.320;2023-03-01T08:02:42;-1.80;99.90
7167;DHT22;3625;51.762;14.320;2023-03-01T08:35:22;0.30;99.90
7167;DHT22;3625;51.762;14.320;2023-03-01T09:00:13;0.70;99.90
7167;DHT22;3625;51.762;14.320;2023-03-01T09:10:12;1.20;99.90
7167;DHT22;3625;51.762;14.320;2023-03-01T09:17:38;1.30;99.90
7167;DHT22;3625;51.762;14.320;2023-03-01T09:20:08;1.40;99.90
7167;DHT22;3625;51.762;14.320;2023-03-01T09:25:07;1.50;99.90
7167;DHT22;3625;51.762;14.320;2023-03-01T09:27:37;1.50;99.90
7167;DHT22;3625;51.762;14.320;2023-03-01T09:30:07;1.60;99.90
7167;DHT22;3625;51.762;14.320;2023-03-01T09:37:39;1.70;99.90
7167;DHT22;3625;51.762;14.320;2023-03-01T09:40:13;1.80;99.90
7167;DHT22;3625;51.762;14.320;2023-03-01T09:42:53;1.90;99.90
7167;DHT22;3625;51.762;14.320;2023-03-01T09:45:34;1.90;99.90
7167;DHT22;3625;51.762;14.320;2023-03-01T09:48:13;1.90;99.90
7167;DHT22;3625;51.762;14.320;2023-03-01T09:50:49;2.00;99.90
7167;DHT22;3625;51.762;14.320;2023-03-01T09:53:21;2.10;99.90
7167;DHT22;3625;51.762;14.320;2023-03-01T09:56:01;2.10;99.90
7167;DHT22;3625;51.762;14.320;2023-03-01T09:58:40;2.10;99.90
7167;DHT22;3625;51.762;14.320;2023-03-01T10:01:26;2.20;99.90
7167;DHT22;3625;51.762;14.320;2023-03-01T10:04:09;2.20;99.90
7167;DHT22;3625;51.762;14.320;2023-03-01T10:07:03;2.40;99.90
7167;DHT22;3625;51.762;14.320;2023-03-01T10:09:43;2.50;99.90
7167;DHT22;3625;51.762;14.320;2023-03-01T10:12:17;2.60;99.90
7167;DHT22;3625;51.762;14.320;2023-03-01T10:14:59;2.60;99.90
7167;DHT22;3625;51.762;14.320;2023-03-01T10:17:37;2.60;99.90
7167;DHT22;3625;51.762;14.320;2023-03-01T10:20:17;2.70;99.90
7167;DHT22;3625;51.762;14.320;2023-03-01T10:25:29;2.80;99.90
7167;DHT22;3625;51.762;14.320;2023-03-01T10:28:16;2.80;99.90
7167;DHT22;3625;51.762;14.320;2023-03-01T10:30:47;2.80;99.90
7167;DHT22;3625;51.762;14.320;2023-03-01T10:33:20;2.80;99.90
7167;DHT22;3625;51.762;14.320;2023-03-01T10:40:54;2.90;99.90
7167;DHT22;3625;51.762;14.320;2023-03-01T10:43:26;3.00;99.90
7167;DHT22;3625;51.762;14.320;2023-03-01T10:46:01;3.00;99.90
7167;DHT22;3625;51.762;14.320;2023-03-01T10:51:08;3.10;99.90
7167;DHT22;3625;51.762;14.320;2023-03-01T10:53:48;3.20;99.90
7167;DHT22;3625;51.762;14.320;2023-03-01T10:58:58;3.20;99.90
7167;DHT22;3625;51.762;14.320;2023-03-01T11:01:31;2.60;99.90
7167;DHT22;3625;51.762;14.320;2023-03-01T11:04:12;3.40;99.90
7167;DHT22;3625;51.762;14.320;2023-03-01T11:06:41;3.40;99.90
7167;DHT22;3625;51.762;14.320;2023-03-01T11:09:15;3.40;99.90
7167;DHT22;3625;51.762;14.320;2023-03-01T11:11:46;3.40;99.90
7167;DHT22;3625;51.762;14.320;2023-03-01T11:14:22;3.50;99.90
7167;DHT22;3625;51.762;14.320;2023-03-01T11:17:04;3.50;99.90
7167;DHT22;3625;51.762;14.320;2023-03-01T11:19:34;3.60;99.90
7167;DHT22;3625;51.762;14.320;2023-03-01T11:22:04;3.70;99.90
7167;DHT22;3625;51.762;14.320;2023-03-01T11:24:42;3.70;99.90
7167;DHT22;3625;51.762;14.320;2023-03-01T11:27:19;3.80;99.90
7167;DHT22;3625;51.762;14.320;2023-03-01T11:29:55;3.70;99.90
7167;DHT22;3625;51.762;14.320;2023-03-01T11:32:34;3.80;99.90
7167;DHT22;3625;51.762;14.320;2023-03-01T11:35:16;4.00;99.90
7167;DHT22;3625;51.762;14.320;2023-03-01T11:37:58;4.00;99.90
7167;DHT22;3625;51.762;14.320;2023-03-01T11:40:34;4.00;99.90
7167;DHT22;3625;51.762;14.320;2023-03-01T11:43:14;4.00;99.90
7167;DHT22;3625;51.762;14.320;2023-03-01T11:46:33;4.00;99.90
7167;DHT22;3625;51.762;14.320;2023-03-01T11:52:38;4.10;99.90
7167;DHT22;3625;51.762;14.320;2023-03-01T11:55:25;4.20;99.90
7167;DHT22;3625;51.762;14.320;2023-03-01T11:58:17;4.20;99.90
7167;DHT22;3625;51.762;14.320;2023-03-01T12:01:12;4.20;99.90
7167;DHT22;3625;51.762;14.320;2023-03-01T12:04:20;4.30;99.90
7167;DHT22;3625;51.762;14.320;2023-03-01T12:07:07;4.30;99.90
7167;DHT22;3625;51.762;14.320;2023-03-01T12:13:03;4.50;99.90
7167;DHT22;3625;51.762;14.320;2023-03-01T12:16:06;4.50;99.90
7167;DHT22;3625;51.762;14.320;2023-03-01T12:19:28;4.50;99.90
7167;DHT22;3625;51.762;14.320;2023-03-01T12:22:18;4.60;99.90
7167;DHT22;3625;51.762;14.320;2023-03-01T12:25:13;4.60;99.90
7167;DHT22;3625;51.762;14.320;2023-03-01T12:28:00;4.60;99.90
7167;DHT22;3625;51.762;14.320;2023-03-01T12:30:46;4.70;99.90
7167;DHT22;3625;51.762;14.320;2023-03-01T12:33:33;4.80;99.90
7167;DHT22;3625;51.762;14.320;2023-03-01T12:36:27;4.80;99.90
7167;DHT22;3625;51.762;14.320;2023-03-01T12:39:25;4.90;99.90
7167;DHT22;3625;51.762;14.320;2023-03-01T12:42:17;4.90;99.90
7167;DHT22;3625;51.762;14.320;2023-03-01T12:45:12;5.00;99.90
7167;DHT22;3625;51.762;14.320;2023-03-01T12:48:07;5.10;99.90
7167;DHT22;3625;51.762;14.320;2023-03-01T12:50:47;5.10;99.90
7167;DHT22;3625;51.762;14.320;2023-03-01T12:53:24;5.20;99.90
7167;DHT22;3625;51.762;14.320;2023-03-01T12:55:59;5.20;99.90
7167;DHT22;3625;51.762;14.320;2023-03-01T12:58:32;5.20;99.90
7167;DHT22;3625;51.762;14.320;2023-03-01T13:01:25;5.30;99.90
7167;DHT22;3625;51.762;14.320;2023-03-01T13:04:14;4.60;99.90
7167;DHT22;3625;51.762;14.320;2023-03-01T13:06:55;5.30;99.90
7167;DHT22;3625;51.762;14.320;2023-03-01T13:09:37;5.30;99.90
7167;DHT22;3625;51.762;14.320;2023-03-01T13:12:43;5.40;99.90
7167;DHT22;3625;51.762;14.320;2023-03-01T13:15:30;5.40;99.90
7167;DHT22;3625;51.762;14.320;2023-03-01T13:18:11;5.40;99.90
7167;DHT22;3625;51.762;14.320;2023-03-01T13:20:59;5.40;99.90
7167;DHT22;3625;51.762;14.320;2023-03-01T13:23:33;5.50;99.90
7167;DHT22;3625;51.762;14.320;2023-03-01T13:26:07;5.50;99.90
7167;DHT22;3625;51.762;14.320;2023-03-01T13:28:52;5.40;99.90
7167;DHT22;3625;51.762;14.320;2023-03-01T13:34:50;5.50;99.90
7167;DHT22;3625;51.762;14.320;2023-03-01T13:37:28;5.50;99.90
7167;DHT22;3625;51.762;14.320;2023-03-01T13:40:00;5.60;99.90
7167;DHT22;3625;51.762;14.320;2023-03-01T13:42:35;5.60;99.90
7167;DHT22;3625;51.762;14.320;2023-03-01T13:45:18;5.50;99.90
7167;DHT22;3625;51.762;14.320;2023-03-01T13:47:53;5.60;99.90
7167;DHT22;3625;51.762;14.320;2023-03-01T13:50:28;5.70;99.90
7167;DHT22;3625;51.762;14.320;2023-03-01T13:53:02;5.70;99.90
7167;DHT22;3625;51.762;14.320;2023-03-01T13:55:38;5.70;99.90
7167;DHT22;3625;51.762;14.320;2023-03-01T13:58:18;5.70;99.90
7167;DHT22;3625;51.762;14.320;2023-03-01T14:00:58;5.60;99.90
7167;DHT22;3625;51.762;14.320;2023-03-01T14:03:29;5.60;99.90
7167;DHT22;3625;51.762;14.320;2023-03-01T14:06:03;5.60;99.90
7167;DHT22;3625;51.762;14.320;2023-03-01T14:08:43;5.60;99.90
7167;DHT22;3625;51.762;14.320;2023-03-01T14:11:52;5.60;99.90
7167;DHT22;3625;51.762;14.320;2023-03-01T14:14:40;5.60;99.90
7167;DHT22;3625;51.762;14.320;2023-03-01T14:20:31;5.60;99.90
7167;DHT22;3625;51.762;14.320;2023-03-01T14:23:11;5.50;99.90
7167;DHT22;3625;51.762;14.320;2023-03-01T14:25:47;5.50;99.90
7167;DHT22;3625;51.762;14.320;2023-03-01T14:28:19;5.50;99.90
7167;DHT22;3625;51.762;14.320;2023-03-01T14:30:51;5.50;99.90
7167;DHT22;3625;51.762;14.320;2023-03-01T14:33:26;5.50;99.90
7167;DHT22;3625;51.762;14.320;2023-03-01T14:35:59;5.50;99.90
7167;DHT22;3625;51.762;14.320;2023-03-01T14:38:32;5.50;99.90
7167;DHT22;3625;51.762;14.320;2023-03-01T14:41:06;5.50;99.90
7167;DHT22;3625;51.762;14.320;2023-03-01T14:43:38;8.40;99.90
7167;DHT22;3625;51.762;14.320;2023-03-01T14:46:19;5.40;99.90
7167;DHT22;3625;51.762;14.320;2023-03-01T14:48:51;5.50;99.90
7167;DHT22;3625;51.762;14.320;2023-03-01T14:58:51;5.30;99.90
7167;DHT22;3625;51.762;14.320;2023-03-01T15:03:51;5.20;99.90
7167;DHT22;3625;51.762;14.320;2023-03-01T15:06:22;5.30;99.90
7167;DHT22;3625;51.762;14.320;2023-03-01T15:08:53;5.30;99.90
7167;DHT22;3625;51.762;14.320;2023-03-01T15:11:28;5.30;99.90
7167;DHT22;3625;51.762;14.320;2023-03-01T15:13:58;5.20;99.90
7167;DHT22;3625;51.762;14.320;2023-03-01T15:16:29;5.20;99.90
7167;DHT22;3625;51.762;14.320;2023-03-01T15:19:04;5.30;99.90
7167;DHT22;3625;51.762;14.320;2023-03-01T15:21:36;5.10;99.90
7167;DHT22;3625;51.762;14.320;2023-03-01T15:24:07;5.10;99.90
7167;DHT22;3625;51.762;14.320;2023-03-01T15:26:51;5.10;99.90
7167;DHT22;3625;51.762;14.320;2023-03-01T15:29:26;8.10;99.90
7167;DHT22;3625;51.762;14.320;2023-03-01T15:32:01;5.00;99.90
7167;DHT22;3625;51.762;14.320;2023-03-01T15:34:34;5.00;99.90
7167;DHT22;3625;51.762;14.320;2023-03-01T15:37:06;5.00;99.90
7167;DHT22;3625;51.762;14.320;2023-03-01T15:40:18;4.90;99.90
7167;DHT22;3625;51.762;14.320;2023-03-01T15:45:23;4.80;99.90
7167;DHT22;3625;51.762;14.320;2023-03-01T15:47:55;4.80;99.90
7167;DHT22;3625;51.762;14.320;2023-03-01T15:50:28;4.70;99.90
7167;DHT22;3625;51.762;14.320;2023-03-01T15:53:00;4.70;99.90
7167;DHT22;3625;51.762;14.320;2023-03-01T15:58:04;4.70;99.90
7167;DHT22;3625;51.762;14.320;2023-03-01T16:00:37;4.60;99.90
7167;DHT22;3625;51.762;14.320;2023-03-01T16:05:54;4.50;99.90
7167;DHT22;3625;51.762;14.320;2023-03-01T16:10:52;4.50;99.90
7167;DHT22;3625;51.762;14.320;2023-03-01T16:13:21;4.40;99.90
7167;DHT22;3625;51.762;14.320;2023-03-01T16:20:54;4.10;99.90
7167;DHT22;3625;51.762;14.320;2023-03-01T16:36:05;3.60;99.90
7167;DHT22;3625;51.762;14.320;2023-03-01T16:46:11;3.50;99.90
7167;DHT22;3625;51.762;14.320;2023-03-01T16:51:17;3.40;99.90
7167;DHT22;3625;51.762;14.320;2023-03-01T16:56:15;3.20;99.90
7167;DHT22;3625;51.762;14.320;2023-03-01T16:58:45;3.10;99.90
7167;DHT22;3625;51.762;14.320;2023-03-01T17:01:16;3.20;99.90
7167;DHT22;3625;51.762;14.320;2023-03-01T17:03:46;3.10;99.90
7167;DHT22;3625;51.762;14.320;2023-03-01T17:06:20;3.00;99.90
7167;DHT22;3625;51.762;14.320;2023-03-01T17:13:49;2.80;99.90
7167;DHT22;3625;51.762;14.320;2023-03-01T17:16:19;2.70;99.90
7167;DHT22;3625;51.762;14.320;2023-03-01T17:21:20;2.40;99.90
7167;DHT22;3625;51.762;14.320;2023-03-01T17:23:49;2.30;99.90
7167;DHT22;3625;51.762;14.320;2023-03-01T17:26:19;2.30;99.90
7167;DHT22;3625;51.762;14.320;2023-03-01T17:36:19;2.10;99.90
7167;DHT22;3625;51.762;14.320;2023-03-01T17:46:16;2.00;99.90
7167;DHT22;3625;51.762;14.320;2023-03-01T17:53:46;1.70;99.90
7167;DHT22;3625;51.762;14.320;2023-03-01T17:56:15;1.50;99.90
7167;DHT22;3625;51.762;14.320;2023-03-01T18:01:14;1.30;99.90
7167;DHT22;3625;51.762;14.320;2023-03-01T18:03:45;1.20;99.90
7167;DHT22;3625;51.762;14.320;2023-03-01T18:06:16;1.10;99.90
7167;DHT22;3625;51.762;14.320;2023-03-01T18:08:48;1.00;99.90
7167;DHT22;3625;51.762;14.320;2023-03-01T18:11:18;0.50;99.90
7167;DHT22;3625;51.762;14.320;2023-03-01T18:16:19;0.80;99.90
7167;DHT22;3625;51.762;14.320;2023-03-01T18:23:52;0.60;99.90
7167;DHT22;3625;51.762;14.320;2023-03-01T18:26:21;0.50;99.90
7167;DHT22;3625;51.762;14.320;2023-03-01T18:31:21;0.30;99.90
7167;DHT22;3625;51.762;14.320;2023-03-01T18:33:52;0.20;99.90
7167;DHT22;3625;51.762;14.320;2023-03-01T18:36:23;0.10;99.90
7167;DHT22;3625;51.762;14.320;2023-03-01T18:38:54;-0.10;99.90
7167;DHT22;3625;51.762;14.320;2023-03-01T18:41:24;-0.10;99.90
7167;DHT22;3625;51.762;14.320;2023-03-01T18:43:55;-0.20;99.90
7167;DHT22;3625;51.762;14.320;2023-03-01T18:48:54;1.60;99.90
7167;DHT22;3625;51.762;14.320;2023-03-01T18:51:25;-0.10;99.90
7167;DHT22;3625;51.762;14.320;2023-03-01T18:53:58;-0.20;99.90
7167;DHT22;3625;51.762;14.320;2023-03-01T18:56:28;-0.30;99.90
7167;DHT22;3625;51.762;14.320;2023-03-01T19:06:35;-0.70;99.90
7167;DHT22;3625;51.762;14.320;2023-03-01T19:16:33;-0.80;99.90
7167;DHT22;3625;51.762;14.320;2023-03-01T19:19:03;-0.90;99.90
7167;DHT22;3625;51.762;14.320;2023-03-01T21:39:05;-2.30;99.90
7167;DHT22;3625;51.762;14.320;2023-03-01T21:41:36;-2.30;99.90
7167;DHT22;3625;51.762;14.320;2023-03-01T21:46:35;-2.30;99.90
7167;DHT22;3625;51.762;14.320;2023-03-01T21:59:10;-2.30;99.90
7167;DHT22;3625;51.762;14.320;2023-03-01T22:21:47;-2.40;99.90
7167;DHT22;3625;51.762;14.320;2023-03-01T22:39:19;-2.40;99.90
7167;DHT22;3625;51.762;14.320;2023-03-01T22:44:19;-2.50;99.90
7167;DHT22;3625;51.762;14.320;2023-03-01T23:09:23;-2.40;99.90
7167;DHT22;3625;51.762;14.320;2023-03-01T23:14:28;-2.50;99.90
7167;DHT22;3625;51.762;14.320;2023-03-01T23:54:24;-2.70;99.90
